sensor_id;sensor_type;location;lat;lon;timestamp;temperature;humidity
1524;DHT22;755;53.658;10.118;2023-06-14T00:08:55;14.60;99.90
1524;DHT22;755;53.658;10.118;2023-06-14T00:18:58;14.50;99.90
1524;DHT22;755;53.658;10.118;2023-06-14T00:29:00;14.30;99.90
1524;DHT22;755;53.658;10.118;2023-06-14T00:39:03;14.40;99.90
1524;DHT22;755;53.658;10.118;2023-06-14T00:49:05;14.30;99.90
1524;DHT22;755;53.658;10.118;2023-06-14T00:59:09;14.00;99.90
1524;DHT22;755;53.658;10.118;2023-06-14T01:09:18;13.80;99.90
1524;DHT22;755;53.658;10.118;2023-06-14T01:19:22;13.80;99.90
1524;DHT22;755;53.658;10.118;2023-06-14T01:29:28;13.70;99.90
1524;DHT22;755;53.658;10.118;2023-06-14T01:39:33;13.80;99.90
1524;DHT22;755;53.658;10.118;2023-06-14T01:49:38;13.90;99.90
1524;DHT22;755;53.658;10.118;2023-06-14T01:59:40;13.70;99.90
1524;DHT22;755;53.658;10.118;2023-06-14T02:09:43;13.50;99.90
1524;DHT22;755;53.658;10.118;2023-06-14T02:19:46;13.50;99.90
1524;DHT22;755;53.658;10.118;2023-06-14T02:29:52;13.40;99.90
1524;DHT22;755;53.658;10.118;2023-06-14T02:39:55;13.40;99.90
1524;DHT22;755;53.658;10.118;2023-06-14T02:49:58;13.30;99.90
1524;DHT22;755;53.658;10.118;2023-06-14T03:00:01;13.30;99.90
1524;DHT22;755;53.658;10.118;2023-06-14T03:10:05;13.30;99.90
1524;DHT22;755;53.658;10.118;2023-06-14T03:20:09;13.20;99.90
1524;DHT22;755;53.658;10.118;2023-06-14T03:30:13;13.30;99.90
1524;DHT22;755;53.658;10.118;2023-06-14T03:40:18;13.10;99.90
1524;DHT22;755;53.658;10.118;2023-06-14T03:50:22;13.00;99.90
1524;DHT22;755;53.658;10.118;2023-06-14T04:00:24;13.20;99.90
1524;DHT22;755;53.658;10.118;2023-06-14T04:10:27;13.40;99.90
1524;DHT22;755;53.658;10.118;2023-06-14T04:20:29;13.50;99.90
1524;DHT22;755;53.658;10.118;2023-06-14T04:30:33;13.80;99.90
1524;DHT22;755;53.658;10.118;2023-06-14T04:40:35;14.20;99.90
1524;DHT22;755;53.658;10.118;2023-06-14T04:50:44;14.50;99.90
1524;DHT22;755;53.658;10.118;2023-06-14T05:00:46;14.80;99.90
1524;DHT22;755;53.658;10.118;2023-06-14T05:10:49;15.10;99.90
1524;DHT22;755;53.658;10.118;2023-06-14T05:20:51;15.90;1.00
1524;DHT22;755;53.658;10.118;2023-06-14T05:30:54;16.40;64.60
1524;DHT22;755;53.658;10.118;2023-06-14T05:40:56;16.10;99.90
1524;DHT22;755;53.658;10.118;2023-06-14T05:51:01;16.20;99.90
1524;DHT22;755;53.658;10.118;2023-06-14T06:01:03;16.40;1.00
1524;DHT22;755;53.658;10.118;2023-06-14T06:11:07;16.90;99.90
1524;DHT22;755;53.658;10.118;2023-06-14T06:21:09;17.10;1.00
1524;DHT22;755;53.658;10.118;2023-06-14T06:31:12;17.60;1.00
1524;DHT22;755;53.658;10.118;2023-06-14T06:41:14;17.90;1.00
1524;DHT22;755;53.658;10.118;2023-06-14T06:51:17;18.10;99.90
1524;DHT22;755;53.658;10.118;2023-06-14T07:01:19;18.50;99.90
1524;DHT22;755;53.658;10.118;2023-06-14T07:11:22;19.10;66.00
1524;DHT22;755;53.658;10.118;2023-06-14T07:21:24;19.20;1.00
1524;DHT22;755;53.658;10.118;2023-06-14T07:31:28;19.70;1.00
1524;DHT22;755;53.658;10.118;2023-06-14T07:41:30;19.90;99.90
1524;DHT22;755;53.658;10.118;2023-06-14T07:51:33;20.40;99.90
1524;DHT22;755;53.658;10.118;2023-06-14T08:01:35;20.50;99.90
1524;DHT22;755;53.658;10.118;2023-06-14T08:11:39;21.00;1.00
1524;DHT22;755;53.658;10.118;2023-06-14T08:21:41;21.20;1.00
1524;DHT22;755;53.658;10.118;2023-06-14T08:31:44;21.40;1.00
1524;DHT22;755;53.658;10.118;2023-06-14T08:41:47;22.70;1.00
1524;DHT22;755;53.658;10.118;2023-06-14T08:51:56;23.20;1.00
1524;DHT22;755;53.658;10.118;2023-06-14T09:01:58;23.90;1.00
1524;DHT22;755;53.658;10.118;2023-06-14T09:12:02;23.70;1.00
1524;DHT22;755;53.658;10.118;2023-06-14T09:22:04;24.00;1.00
1524;DHT22;755;53.658;10.118;2023-06-14T09:32:08;24.30;1.00
1524;DHT22;755;53.658;10.118;2023-06-14T09:42:18;24.50;99.90
1524;DHT22;755;53.658;10.118;2023-06-14T09:52:23;24.10;99.90
1524;DHT22;755;53.658;10.118;2023-06-14T10:02:31;24.30;1.00
1524;DHT22;755;53.658;10.118;2023-06-14T10:12:40;24.30;99.90
1524;DHT22;755;53.658;10.118;2023-06-14T10:22:47;24.70;99.90
1524;DHT22;755;53.658;10.118;2023-06-14T10:33:20;24.80;99.90
1524;DHT22;755;53.658;10.118;2023-06-14T10:43:23;24.40;99.90
1524;DHT22;755;53.658;10.118;2023-06-14T10:53:40;25.40;99.90
1524;DHT22;755;53.658;10.118;2023-06-14T11:03:50;23.70;99.90
1524;DHT22;755;53.658;10.118;2023-06-14T11:14:01;25.00;99.90
1524;DHT22;755;53.658;10.118;2023-06-14T11:24:16;24.00;99.90
1524;DHT22;755;53.658;10.118;2023-06-14T11:34:53;25.00;99.90
1524;DHT22;755;53.658;10.118;2023-06-14T11:44:56;24.60;99.90
1524;DHT22;755;53.658;10.118;2023-06-14T11:55:02;23.40;99.90
1524;DHT22;755;53.658;10.118;2023-06-14T12:05:06;24.20;99.90
1524;DHT22;755;53.658;10.118;2023-06-14T12:15:16;24.30;99.90
1524;DHT22;755;53.658;10.118;2023-06-14T12:25:42;23.80;99.90
1524;DHT22;755;53.658;10.118;2023-06-14T12:36:15;23.60;99.90
1524;DHT22;755;53.658;10.118;2023-06-14T12:46:23;23.80;99.90
1524;DHT22;755;53.658;10.118;2023-06-14T12:56:28;24.00;99.90
1524;DHT22;755;53.658;10.118;2023-06-14T13:06:31;24.50;99.90
1524;DHT22;755;53.658;10.118;2023-06-14T13:16:35;23.90;99.90
1524;DHT22;755;53.658;10.118;2023-06-14T13:26:37;24.90;99.90
1524;DHT22;755;53.658;10.118;2023-06-14T13:36:41;24.60;99.90
1524;DHT22;755;53.658;10.118;2023-06-14T13:46:43;25.20;99.90
1524;DHT22;755;53.658;10.118;2023-06-14T13:56:46;24.90;99.90
1524;DHT22;755;53.658;10.118;2023-06-14T14:06:48;25.70;99.90
1524;DHT22;755;53.658;10.118;2023-06-14T14:16:52;26.00;99.90
1524;DHT22;755;53.658;10.118;2023-06-14T14:26:55;26.00;99.90
1524;DHT22;755;53.658;10.118;2023-06-14T14:37:01;24.70;99.90
1524;DHT22;755;53.658;10.118;2023-06-14T14:47:04;25.50;99.90
1524;DHT22;755;53.658;10.118;2023-06-14T14:57:08;25.00;99.90
1524;DHT22;755;53.658;10.118;2023-06-14T15:07:11;24.20;99.90
1524;DHT22;755;53.658;10.118;2023-06-14T15:17:15;24.10;99.90
1524;DHT22;755;53.658;10.118;2023-06-14T15:27:16;23.60;99.90
1524;DHT22;755;53.658;10.118;2023-06-14T15:37:20;23.50;99.90
1524;DHT22;755;53.658;10.118;2023-06-14T15:47:22;23.40;99.90
1524;DHT22;755;53.658;10.118;2023-06-14T15:57:25;22.70;99.90
1524;DHT22;755;53.658;10.118;2023-06-14T16:07:27;22.80;99.90
1524;DHT22;755;53.658;10.118;2023-06-14T16:17:31;22.80;99.90
1524;DHT22;755;53.658;10.118;2023-06-14T16:27:33;22.80;99.90
1524;DHT22;755;53.658;10.118;2023-06-14T16:37:36;22.80;99.90
1524;DHT22;755;53.658;10.118;2023-06-14T16:47:38;22.60;99.90
1524;DHT22;755;53.658;10.118;2023-06-14T16:57:41;22.20;99.90
1524;DHT22;755;53.658;10.118;2023-06-14T17:07:43;22.00;99.90
1524;DHT22;755;53.658;10.118;2023-06-14T17:17:46;21.90;99.90
1524;DHT22;755;53.658;10.118;2023-06-14T17:27:48;21.80;99.90
1524;DHT22;755;53.658;10.118;2023-06-14T17:37:52;21.80;99.90
1524;DHT22;755;53.658;10.118;2023-06-14T17:47:54;21.70;99.90
1524;DHT22;755;53.658;10.118;2023-06-14T17:57:57;21.40;99.90
1524;DHT22;755;53.658;10.118;2023-06-14T18:07:59;21.10;99.90
1524;DHT22;755;53.658;10.118;2023-06-14T18:18:02;21.00;99.90
1524;DHT22;755;53.658;10.118;2023-06-14T18:28:04;20.80;99.90
1524;DHT22;755;53.658;10.118;2023-06-14T18:38:07;20.60;99.90
1524;DHT22;755;53.658;10.118;2023-06-14T18:48:09;20.60;99.90
1524;DHT22;755;53.658;10.118;2023-06-14T18:58:13;20.40;99.90
1524;DHT22;755;53.658;10.118;2023-06-14T19:08:15;20.20;99.90
1524;DHT22;755;53.658;10.118;2023-06-14T19:18:18;20.10;99.90
1524;DHT22;755;53.658;10.118;2023-06-14T19:28:20;19.60;99.90
1524;DHT22;755;53.658;10.118;2023-06-14T19:38:24;19.50;99.90
1524;DHT22;755;53.658;10.118;2023-06-14T19:48:26;19.40;99.90
1524;DHT22;755;53.658;10.118;2023-06-14T19:58:29;19.60;99.90
1524;DHT22;755;53.658;10.118;2023-06-14T20:08:31;19.40;99.90
1524;DHT22;755;53.658;10.118;2023-06-14T20:18:34;19.20;99.90
1524;DHT22;755;53.658;10.118;2023-06-14T20:28:36;19.00;99.90
1524;DHT22;755;53.658;10.118;2023-06-14T20:38:39;18.80;99.90
1524;DHT22;755;53.658;10.118;2023-06-14T20:48:41;18.40;1.00
1524;DHT22;755;53.658;10.118;2023-06-14T20:58:45;18.20;1.00
1524;DHT22;755;53.658;10.118;2023-06-14T21:08:47;17.90;1.00
1524;DHT22;755;53.658;10.118;2023-06-14T21:18:50;17.70;1.00
1524;DHT22;755;53.658;10.118;2023-06-14T21:28:52;17.60;1.00
1524;DHT22;755;53.658;10.118;2023-06-14T21:38:55;17.30;1.00
1524;DHT22;755;53.658;10.118;2023-06-14T21:48:57;17.10;15.60
1524;DHT22;755;53.658;10.118;2023-06-14T21:59:00;16.70;19.70
1524;DHT22;755;53.658;10.118;2023-06-14T22:09:02;16.50;99.90
1524;DHT22;755;53.658;10.118;2023-06-14T22:19:06;16.30;99.90
1524;DHT22;755;53.658;10.118;2023-06-14T22:29:09;16.30;99.90
1524;DHT22;755;53.658;10.118;2023-06-14T22:39:12;16.00;99.90
1524;DHT22;755;53.658;10.118;2023-06-14T22:49:14;16.00;99.90
1524;DHT22;755;53.658;10.118;2023-06-14T22:59:18;15.60;1.00
1524;DHT22;755;53.658;10.118;2023-06-14T23:09:21;15.40;1.00
1524;DHT22;755;53.658;10.118;2023-06-14T23:19:24;15.10;1.00
1524;DHT22;755;53.658;10.118;2023-06-14T23:29:26;15.00;1.00
1524;DHT22;755;53.658;10.118;2023-06-14T23:39:30;14.70;1.00
1524;DHT22;755;53.658;10.118;2023-06-14T23:49:33;14.60;1.00
1524;DHT22;755;53.658;10.118;2023-06-14T23:59:37;14.60;1.00
